This is the latest recevied weather packets stored in our database for station/object KN4QD-13. If no packets are shown the sender has not sent any weather packets the latest 10 day(s).
| Time | Temp. | Humidity | Pressure | Rain* | Wind** | Luminosity | Snow |
|---|---|---|---|---|---|---|---|
| 1777636357 | 7.22° C | 81% | 1012.7 hPa | 0 mm | - | - | - |
| 1777628537 | 7.22° C | 77% | 1012.7 hPa | 0 mm | - | - | - |
| 1777623737 | 7.78° C | 75% | 1012.6 hPa | 0 mm | - | - | - |
| 1777623137 | 7.78° C | 75% | 1012.3 hPa | 0 mm | - | - | - |
| 1777621336 | 8.33° C | 70% | 1012.3 hPa | 0 mm | - | - | - |
| 1777619536 | 8.33° C | 70% | 1013 hPa | 0 mm | - | - | - |
| 1777616556 | 8.33° C | 73% | 1012.9 hPa | 0 mm | - | - | - |
| 1777611736 | 8.33° C | 72% | 1013.4 hPa | 0 mm | - | - | - |
| 1777608736 | 8.33° C | 72% | 1013 hPa | 0 mm | - | - | - |
| 1777608136 | 8.33° C | 72% | 1012.9 hPa | 0 mm | - | - | - |
| 1777606956 | 8.33° C | 74% | 1012.9 hPa | 0 mm | - | - | - |
| 1777601536 | 9.44° C | 70% | 1012 hPa | 0 mm | - | - | - |
| 1777596736 | 10.56° C | 63% | 1010.9 hPa | 0 mm | - | - | - |
| 1777596136 | 10.56° C | 62% | 1010.5 hPa | 0 mm | - | - | - |
| 1777593156 | 12.22° C | 59% | 1009.8 hPa | 0 mm | - | - | - |
| 1777591956 | 12.78° C | 58% | 1010.1 hPa | 0 mm | - | - | - |
| 1777587736 | 15° C | 54% | 1010.5 hPa | 0 mm | - | - | - |
| 1777584136 | 16.67° C | 47% | 1010.1 hPa | 0 mm | - | - | - |
| 1777583556 | 17.22° C | 48% | 1010.2 hPa | 0 mm | - | - | - |
| 1777582336 | 17.22° C | 45% | 1010.3 hPa | 0 mm | - | - | - |
| 1777581756 | 17.78° C | 48% | 1010.5 hPa | 0 mm | - | - | - |
| 1777579356 | 17.78° C | 46% | 1010.8 hPa | 0 mm | - | - | - |
| 1777578736 | 17.22° C | 48% | 1010.5 hPa | 0 mm | - | - | - |
| 1777573955 | 19.44° C | 47% | 1011.4 hPa | 0 mm | - | - | - |
| 1777573355 | 19.44° C | 46% | 1011.3 hPa | 0 mm | - | - | - |
* Rain latest hour (hover to see other rain measurements)
** Current wind speed in m/s (hover to see current wind gust speed)